Flight Track Log - Related Links

Times and Time Zones

All times are in EDT time to prevent confusion due to time zone crossing. See the JZA7798 flight status page for this flight to view local times or setup timezone preferences in your user account.

Time Position Orientation Groundspeed Altitude Reporting Facility
EDT Latitude Longitude Course Direction KTS MPH feet Rate Location/Type
Sun 08:48:26 PM 46.4519 -84.3689 108° East 163 188 4,200  Level Minneapolis Center
Sun 08:49:28 PM 46.4375 -84.3058 108° East 164 189 5,700 1,500 Climbing Minneapolis Center
Sun 08:50:30 PM 46.4136 -84.2400 118° Southeast 171 197 7,300 1,500 Climbing Minneapolis Center
Sun 08:51:32 PM 46.3828 -84.1825 128° Southeast 181 208 8,800 1,258 Climbing Minneapolis Center
Sun 08:52:34 PM 46.3472 -84.1158 128° Southeast 194 223 9,900 1,113 Climbing Minneapolis Center
Sun 08:53:36 PM 46.3086 -84.0433 128° Southeast 222 255 11,100 1,258 Climbing Minneapolis Center
Sun 08:54:38 PM 46.2672 -83.9606 126° Southeast 234 269 12,500 1,355 Climbing Minneapolis Center
Sun 08:55:40 PM 46.2239 -83.8789 127° Southeast 239 275 13,900 1,210 Climbing Minneapolis Center
Sun 08:56:42 PM 46.1861 -83.8033 126° Southeast 235 270 15,000 1,081 Climbing Minneapolis Center
Sun 08:57:31 PM 46.1500 -83.7167 121° Southeast 230 265 15,900 1,046 Climbing Toronto Center
Sun 08:58:31 PM 46.1000 -83.6500 137° Southeast 240 276 16,900 1,000 Climbing Toronto Center
Sun 08:59:31 PM 46.0667 -83.5667 120° Southeast 240 276 17,900 1,000 Climbing Toronto Center
Sun 09:00:31 PM 46.0167 -83.5000 137° Southeast 240 276 18,900 950 Climbing Toronto Center
Sun 09:01:31 PM 45.9833 -83.4167 120° Southeast 240 276 19,800 850 Climbing Toronto Center
Sun 09:02:31 PM 45.9333 -83.3500 137° Southeast 240 276 20,600 750 Climbing Toronto Center
Sun 09:03:31 PM 45.9000 -83.2667 120° Southeast 240 276 21,300 650 Climbing Toronto Center
Sun 09:04:31 PM 45.8667 -83.2000 126° Southeast 250 288 21,900 650 Climbing Toronto Center
Sun 09:05:31 PM 45.8167 -83.1333 137° Southeast 250 288 22,600 700 Climbing Toronto Center
Sun 09:06:31 PM 45.7667 -83.0333 126° Southeast 250 288 23,300 650 Climbing Toronto Center
Sun 09:07:31 PM 45.7333 -82.9833 134° Southeast 240 276 23,900 550 Climbing Toronto Center
Sun 09:08:31 PM 45.6833 -82.9000 131° Southeast 240 276 24,400 500 Climbing Toronto Center
Sun 09:09:31 PM 45.6500 -82.8000 115° Southeast 240 276 24,900 300 Climbing Toronto Center
Sun 09:10:31 PM 45.6000 -82.7333 137° Southeast 250 288 25,000 50 Climbing Toronto Center
Sun 09:11:31 PM 45.5667 -82.6500 120° Southeast 270 311 25,000  Level Toronto Center
Sun 09:12:31 PM 45.5167 -82.5667 131° Southeast 280 322 25,000  Level Toronto Center
Sun 09:13:31 PM 45.4667 -82.4667 125° Southeast 290 334 25,000  Level Toronto Center
Sun 09:14:31 PM 45.4167 -82.3833 131° Southeast 290 334 25,000  Level Toronto Center
Sun 09:15:31 PM 45.3667 -82.2833 125° Southeast 290 334 25,000  Level Toronto Center
Sun 09:16:31 PM 45.3167 -82.2000 130° Southeast 290 334 25,000  Level Toronto Center
Sun 09:17:31 PM 45.2667 -82.1167 130° Southeast 280 322 25,000  Level Toronto Center
Sun 09:18:31 PM 45.2000 -82.0167 133° Southeast 300 345 25,000  Level Toronto Center
Sun 09:19:31 PM 45.1667 -81.9333 120° Southeast 300 345 25,000  Level Toronto Center
Sun 09:20:31 PM 45.1167 -81.8333 125° Southeast 300 345 25,000  Level Toronto Center
Sun 09:21:31 PM 45.0667 -81.7333 125° Southeast 300 345 25,000  Level Toronto Center
Sun 09:22:31 PM 45.0167 -81.6667 137° Southeast 310 357 25,000 -150 Level Toronto Center
Sun 09:23:31 PM 44.9500 -81.5333 125° Southeast 310 357 24,700 -650 Descending Toronto Center
Sun 09:24:31 PM 44.9000 -81.4500 130° Southeast 320 368 23,700 -1,000 Descending Toronto Center
Sun 09:25:31 PM 44.8333 -81.3500 133° Southeast 340 391 22,700 -1,000 Descending Toronto Center
Sun 09:26:31 PM 44.7667 -81.2333 129° Southeast 340 391 21,700 -1,000 Descending Toronto Center
Sun 09:27:31 PM 44.7167 -81.1333 125° Southeast 350 403 20,700 -1,000 Descending Toronto Center
Sun 09:28:31 PM 44.6500 -81.0333 133° Southeast 350 403 19,700 -1,350 Descending Toronto Center
Sun 09:29:31 PM 44.5833 -80.9167 129° Southeast 350 403 18,000 -1,600 Descending Toronto Center
Sun 09:30:31 PM 44.5500 -80.8333 119° Southeast 340 391 16,500 -1,750 Descending Toronto Center
Sun 09:31:31 PM 44.4833 -80.7000 125° Southeast 330 380 14,500 -1,950 Descending Toronto Center
Sun 09:32:31 PM 44.4333 -80.6167 130° Southeast 330 380 12,600 -2,000 Descending Toronto Center
Sun 09:33:31 PM 44.3667 -80.5167 133° Southeast 330 380 10,500 -1,800 Descending Toronto Center
Sun 09:34:31 PM 44.3167 -80.4167 125° Southeast 300 345 9,000 -750 Descending Toronto Center
Sun 09:35:31 PM 44.2667 -80.3500 136° Southeast 280 322 9,000  Level Toronto Center
Sun 09:36:31 PM 44.2167 -80.2833 136° Southeast 260 299 9,000  Level Toronto Center
Sun 09:37:31 PM 44.1500 -80.2667 170° South 240 276 9,000 -50 Level Toronto Center
Sun 09:38:31 PM 44.0833 -80.2333 160° South 230 265 8,900 -450 Descending Toronto Center
Sun 09:39:31 PM 44.0333 -80.1667 136° Southeast 250 288 8,100 -950 Descending Toronto Center
Sun 09:40:31 PM 43.9833 -80.1000 136° Southeast 280 322 7,000 -550 Descending Toronto Center
Sun 09:41:31 PM 43.9667 -79.9833 101° East 280 322 7,000  Level Toronto Center
Sun 09:42:31 PM 43.9333 -79.8833 115° Southeast 280 322 7,000  Level Toronto Center
Sun 09:43:31 PM 43.8667 -79.8167 144° Southeast 280 322 7,000  Level Toronto Center
Sun 09:44:31 PM 43.8167 -79.7500 136° Southeast 280 322 7,000 -650 Level Toronto Center
Sun 09:45:31 PM 43.7833 -79.6500 115° Southeast 300 345 5,700 -1,450 Descending Toronto Center
Sun 09:46:31 PM 43.8333 -79.5667 50° Northeast 260 299 4,100 -850 Descending Toronto Center
Sun 09:47:31 PM 43.8333 -79.4667 90° East 230 265 4,000 -250 Descending Toronto Center
Sun 09:48:31 PM 43.7833 -79.4667 180° South 190 219 3,600 -650 Descending Toronto Center
Sun 09:49:31 PM 43.7667 -79.5000 235° Southwest 140 161 2,700 -800 Descending Toronto Center
Sun 09:50:31 PM 43.7333 -79.5333 216° Southwest 130 150 2,000 -600 Descending Toronto Center
Sun 09:51:31 PM 43.7167 -79.5667 235° Southwest 110 127 1,500 -550 Descending Toronto Center
Sun 09:52:31 PM 43.7000 -79.6167 245° Southwest 110 127 900 -450 Descending Toronto Center
Sun 09:53:31 PM 43.6833 -79.6333 216° Southwest 80 92 600 -300 Descending Toronto Center

Login

Don't have an account? Register now (free) for customized features, flight alerts, and more!